Time;durP1;ratioP1;P1;durP2;ratioP2;P2;SDS_P1;SDS_P2;PMS_P1;PMS_P2;Temp;Humidity;BMP_temperature;BMP_pressure;BME280_temperature;BME280_humidity;BME280_pressure;Samples;Min_cycle;Max_cycle;Signal;HPM_P1;HPM_P2
2021/06/04 00:00:43;;;;;;;5.88;4.50;;;23.90;55.40;;;;;;4941714;28;20034;-86
2021/06/04 00:03:16;;;;;;;5.47;4.53;;;23.90;55.60;;;;;;4975649;28;20023;-86
2021/06/04 00:05:46;;;;;;;5.72;4.45;;;23.90;55.60;;;;;;4975304;28;20050;-86
2021/06/04 00:08:14;;;;;;;5.90;4.47;;;23.90;55.60;;;;;;4961378;28;20057;-85
2021/06/04 00:10:51;;;;;;;5.20;4.28;;;23.80;55.60;;;;;;4984820;28;20452;-84
2021/06/04 00:13:26;;;;;;;6.40;4.50;;;23.80;55.60;;;;;;4974902;28;20027;-86
2021/06/04 00:16:14;;;;;;;5.47;4.68;;;23.80;55.60;;;;;;4983568;28;20035;-87
2021/06/04 00:18:41;;;;;;;5.72;4.38;;;23.80;55.70;;;;;;4956860;28;20054;-86
2021/06/04 00:21:35;;;;;;;5.10;4.15;;;23.80;55.70;;;;;;4989820;28;20023;-87
2021/06/04 00:24:03;;;;;;;5.80;4.37;;;23.70;55.60;;;;;;4960039;28;20038;-87
2021/06/04 00:26:30;;;;;;;5.70;4.43;;;23.70;55.60;;;;;;4960288;28;20280;-87
2021/06/04 00:28:57;;;;;;;5.50;4.25;;;23.70;55.70;;;;;;4964043;28;20062;-86
2021/06/04 00:31:23;;;;;;;5.43;4.55;;;23.70;55.70;;;;;;4960693;28;20476;-89
2021/06/04 00:33:50;;;;;;;6.85;4.47;;;23.70;55.70;;;;;;4962409;28;20071;-87
2021/06/04 00:36:16;;;;;;;5.63;4.60;;;23.60;55.70;;;;;;4932361;29;20035;-87
2021/06/04 00:38:43;;;;;;;5.63;4.90;;;23.70;55.80;;;;;;4932650;28;20058;-85
2021/06/04 00:41:21;;;;;;;5.70;4.80;;;23.70;55.90;;;;;;4944994;28;20090;-87
2021/06/04 00:43:49;;;;;;;5.68;4.70;;;23.60;55.90;;;;;;4975046;28;20039;-87
2021/06/04 00:46:16;;;;;;;5.80;4.95;;;23.60;55.90;;;;;;4975120;28;20074;-87
2021/06/04 00:48:41;;;;;;;5.75;4.78;;;23.60;55.90;;;;;;4966868;28;20023;-87
2021/06/04 00:51:23;;;;;;;5.28;4.35;;;23.60;55.90;;;;;;4945097;28;20015;-86
2021/06/04 00:53:51;;;;;;;6.90;5.30;;;23.50;55.90;;;;;;4975722;28;20030;-86
2021/06/04 00:56:23;;;;;;;5.97;5.18;;;23.50;55.90;;;;;;4986995;28;20565;-87
2021/06/04 00:58:49;;;;;;;5.68;4.70;;;23.50;55.90;;;;;;4976122;28;20035;-87
2021/06/04 01:01:20;;;;;;;5.97;4.95;;;23.50;55.90;;;;;;4979299;28;20019;-87
2021/06/04 01:03:54;;;;;;;6.25;5.35;;;23.50;56.00;;;;;;4969584;28;20081;-86
2021/06/04 01:06:52;;;;;;;6.30;5.20;;;23.50;56.00;;;;;;4986841;28;20034;-86
2021/06/04 01:09:33;;;;;;;6.28;5.07;;;23.40;56.00;;;;;;4956827;28;20031;-87
2021/06/04 01:12:05;;;;;;;5.85;4.82;;;23.40;56.00;;;;;;4972347;28;20062;-83
2021/06/04 01:14:55;;;;;;;6.05;4.97;;;23.40;56.00;;;;;;4969746;28;20121;-88
2021/06/04 01:17:27;;;;;;;6.50;5.38;;;23.40;56.10;;;;;;4971469;28;20113;-86
2021/06/04 01:20:04;;;;;;;6.57;5.30;;;23.30;56.00;;;;;;4975138;28;20031;-86
2021/06/04 01:22:49;;;;;;;6.40;5.30;;;23.30;56.00;;;;;;4954914;28;20495;-87
2021/06/04 01:25:31;;;;;;;;;;;23.30;56.10;;;;;;4944375;28;20023;-87
2021/06/04 01:28:00;;;;;;;5.05;4.18;;;23.30;55.90;;;;;;4963247;28;19910;-87
2021/06/04 01:30:34;;;;;;;6.60;5.32;;;23.30;55.90;;;;;;4988991;28;20031;-88
2021/06/04 01:33:05;;;;;;;7.03;5.70;;;23.20;56.10;;;;;;4974832;28;20037;-87
2021/06/04 01:35:39;;;;;;;6.43;5.18;;;23.20;56.20;;;;;;4990914;28;20090;-87
2021/06/04 01:38:06;;;;;;;6.35;5.55;;;23.20;56.20;;;;;;4990868;28;20038;-87
2021/06/04 01:40:47;;;;;;;6.10;5.20;;;23.20;56.20;;;;;;4942846;28;20471;-87
2021/06/04 01:43:22;;;;;;;6.65;5.65;;;23.20;56.20;;;;;;4973561;28;20041;-86
2021/06/04 01:46:03;;;;;;;7.32;6.25;;;23.10;56.20;;;;;;4972935;28;20066;-85
2021/06/04 01:48:35;;;;;;;6.88;5.55;;;23.10;56.20;;;;;;4956359;28;20031;-86
2021/06/04 01:51:30;;;;;;;7.00;5.63;;;23.10;56.20;;;;;;4977700;28;20023;-85
2021/06/04 01:54:10;;;;;;;7.40;5.78;;;23.10;56.30;;;;;;4984364;28;20038;-87
2021/06/04 01:56:47;;;;;;;7.43;6.38;;;23.10;56.30;;;;;;4966914;28;20539;-87
2021/06/04 01:59:24;;;;;;;6.80;6.10;;;23.10;56.40;;;;;;4964520;28;20559;-87
2021/06/04 02:01:59;;;;;;;7.47;6.47;;;23.00;56.30;;;;;;4961258;28;20023;-87
2021/06/04 02:04:33;;;;;;;7.28;6.20;;;23.00;56.30;;;;;;4968940;28;20034;-86
2021/06/04 02:07:00;;;;;;;7.38;6.55;;;23.00;56.40;;;;;;4958304;28;20030;-86
2021/06/04 02:09:28;;;;;;;8.07;6.65;;;23.00;56.40;;;;;;4986758;28;20035;-86
2021/06/04 02:12:02;;;;;;;9.52;6.72;;;23.00;56.40;;;;;;4973961;28;20054;-88
2021/06/04 02:14:42;;;;;;;7.80;6.82;;;23.00;56.40;;;;;;4970136;28;20031;-88
2021/06/04 02:17:20;;;;;;;8.07;6.72;;;23.00;56.50;;;;;;4958768;28;20038;-86
2021/06/04 02:19:59;;;;;;;7.63;6.78;;;22.90;56.50;;;;;;4955559;28;20031;-88
2021/06/04 02:22:57;;;;;;;8.30;7.15;;;22.90;56.60;;;;;;4982667;28;20023;-87
2021/06/04 02:25:30;;;;;;;7.88;6.75;;;22.90;56.50;;;;;;4964917;28;20023;-88
2021/06/04 02:28:23;;;;;;;8.23;7.18;;;22.90;56.50;;;;;;4983576;28;20387;-88
2021/06/04 02:31:16;;;;;;;9.00;7.10;;;22.80;56.70;;;;;;4962565;28;20075;-88
2021/06/04 02:33:47;;;;;;;8.15;7.00;;;22.80;56.70;;;;;;4965401;28;20057;-86
2021/06/04 02:36:36;;;;;;;8.13;6.88;;;22.80;56.70;;;;;;4986326;28;20027;-88
2021/06/04 02:39:35;;;;;;;8.35;7.38;;;22.80;56.80;;;;;;4988703;28;20066;-88
2021/06/04 02:42:46;;;;;;;8.65;7.70;;;22.70;56.80;;;;;;4982597;28;20030;-88
2021/06/04 02:45:21;;;;;;;8.23;7.20;;;22.70;56.80;;;;;;4935639;29;20031;-87
2021/06/04 02:47:52;;;;;;;9.82;7.90;;;22.70;56.80;;;;;;4972012;28;20035;-88
2021/06/04 02:50:42;;;;;;;8.93;7.55;;;22.70;56.80;;;;;;4985636;28;20029;-88
2021/06/04 02:53:13;;;;;;;10.18;8.13;;;22.70;56.90;;;;;;4970023;28;20027;-88
2021/06/04 02:56:00;;;;;;;8.95;7.63;;;22.60;56.80;;;;;;4987390;28;20034;-87
2021/06/04 02:58:26;;;;;;;9.25;7.97;;;22.60;56.90;;;;;;4973259;28;20070;-88
2021/06/04 03:00:52;;;;;;;10.00;8.80;;;22.60;56.80;;;;;;4957633;28;20051;-88
2021/06/04 03:03:20;;;;;;;8.88;7.78;;;22.60;56.90;;;;;;4941559;28;20039;-87
2021/06/04 03:05:46;;;;;;;9.10;7.75;;;22.60;57.00;;;;;;4989940;28;20041;-88
2021/06/04 03:08:14;;;;;;;9.85;8.23;;;22.50;56.90;;;;;;4970600;28;20034;-85
2021/06/04 03:10:47;;;;;;;9.13;8.02;;;22.50;57.00;;;;;;4951869;28;20027;-88
2021/06/04 03:13:21;;;;;;;10.75;8.85;;;22.50;57.10;;;;;;4973711;28;20425;-84
2021/06/04 03:15:54;;;;;;;10.43;8.32;;;22.50;57.10;;;;;;4962479;28;20034;-88
2021/06/04 03:18:33;;;;;;;10.55;8.70;;;22.40;57.10;;;;;;4972130;28;20085;-87
2021/06/04 03:21:00;;;;;;;;;;;22.40;57.10;;;;;;4973640;28;20041;-88
2021/06/04 03:23:39;;;;;;;9.32;7.88;;;22.40;56.80;;;;;;4987330;28;19966;-88
2021/06/04 03:26:18;;;;;;;10.20;8.63;;;22.40;56.90;;;;;;4959186;28;20032;-88
2021/06/04 03:28:47;;;;;;;9.65;8.10;;;22.30;57.00;;;;;;4984061;28;20058;-88
2021/06/04 03:31:19;;;;;;;10.00;8.77;;;22.30;57.00;;;;;;4969442;28;20030;-83
2021/06/04 03:33:47;;;;;;;11.25;8.90;;;22.30;57.10;;;;;;4950720;28;20054;-88
2021/06/04 03:36:21;;;;;;;10.02;8.77;;;22.30;57.20;;;;;;4961097;28;20046;-87
2021/06/04 03:38:48;;;;;;;11.23;9.77;;;22.20;57.10;;;;;;4959892;28;20020;-88
2021/06/04 03:41:18;;;;;;;11.13;9.38;;;22.20;57.10;;;;;;4964191;28;20031;-88
2021/06/04 03:43:48;;;;;;;10.63;9.27;;;22.20;57.20;;;;;;4981214;28;20023;-89
2021/06/04 03:46:15;;;;;;;11.10;9.50;;;22.20;57.20;;;;;;4973361;28;20412;-88
2021/06/04 03:48:41;;;;;;;11.50;9.75;;;22.20;57.30;;;;;;4969079;28;20023;-88
2021/06/04 03:51:12;;;;;;;11.43;9.88;;;22.10;57.20;;;;;;4989109;28;20491;-88
2021/06/04 03:53:38;;;;;;;11.77;9.63;;;22.20;57.40;;;;;;4970774;28;20055;-87
2021/06/04 03:56:06;;;;;;;11.25;10.05;;;22.10;57.30;;;;;;4986952;28;20098;-88
2021/06/04 03:58:32;;;;;;;10.40;9.27;;;22.10;57.30;;;;;;4971201;28;20132;-88
2021/06/04 04:01:05;;;;;;;11.95;10.27;;;22.10;57.30;;;;;;4965561;28;20505;-87
2021/06/04 04:03:31;;;;;;;11.25;9.40;;;22.10;57.40;;;;;;4966662;28;20023;-87
2021/06/04 04:05:56;;;;;;;10.63;9.32;;;22.00;57.30;;;;;;4968060;28;20034;-88
2021/06/04 04:08:25;;;;;;;11.15;9.27;;;22.00;57.40;;;;;;4972204;28;20102;-87
2021/06/04 04:10:53;;;;;;;10.88;9.07;;;22.00;57.40;;;;;;4953707;28;20118;-88
2021/06/04 04:13:20;;;;;;;11.05;9.45;;;22.00;57.50;;;;;;4987323;28;20025;-86
2021/06/04 04:15:47;;;;;;;12.18;10.27;;;21.90;57.40;;;;;;4955211;28;20031;-87
2021/06/04 04:18:14;;;;;;;11.98;10.15;;;21.90;57.50;;;;;;4985423;28;20476;-86
2021/06/04 04:20:51;;;;;;;10.73;9.57;;;21.90;57.50;;;;;;4960457;28;20059;-88
2021/06/04 04:23:27;;;;;;;11.88;10.18;;;21.90;57.60;;;;;;4969199;28;20054;-88
2021/06/04 04:25:53;;;;;;;11.15;9.98;;;21.90;57.60;;;;;;4969328;28;20034;-90
2021/06/04 04:28:23;;;;;;;11.50;9.43;;;21.90;57.50;;;;;;4956360;28;20498;-87
2021/06/04 04:30:49;;;;;;;11.23;9.43;;;21.90;57.60;;;;;;4970550;28;20058;-94
2021/06/04 04:33:15;;;;;;;13.07;10.52;;;21.80;57.60;;;;;;4969963;28;20469;-87
2021/06/04 04:35:42;;;;;;;11.10;9.68;;;21.80;57.60;;;;;;4941646;28;20054;-93
2021/06/04 04:38:09;;;;;;;11.00;9.68;;;21.80;57.60;;;;;;4956853;28;20035;-91
2021/06/04 04:40:38;;;;;;;13.25;10.25;;;21.80;57.70;;;;;;4982189;28;20014;-92
2021/06/04 04:43:08;;;;;;;10.32;8.85;;;21.70;57.70;;;;;;4976355;28;20027;-91
2021/06/04 04:45:35;;;;;;;10.00;8.45;;;21.80;57.70;;;;;;4955255;28;20539;-91
2021/06/04 04:48:01;;;;;;;10.07;8.85;;;21.80;57.70;;;;;;4973378;28;20026;-90
2021/06/04 04:50:27;;;;;;;10.80;9.27;;;21.70;57.70;;;;;;4959817;28;20495;-92
2021/06/04 04:52:55;;;;;;;11.50;9.73;;;21.70;57.80;;;;;;4976440;28;20035;-92
2021/06/04 04:55:24;;;;;;;12.23;9.85;;;21.70;57.80;;;;;;4969886;28;20077;-90
2021/06/04 04:57:49;;;;;;;11.63;9.98;;;21.70;57.80;;;;;;4988554;28;20042;-90
2021/06/04 05:00:20;;;;;;;10.43;9.07;;;21.70;57.80;;;;;;4959995;28;20034;-91
2021/06/04 05:02:46;;;;;;;10.75;9.57;;;21.70;57.90;;;;;;4976068;28;20042;-92
2021/06/04 05:05:14;;;;;;;10.80;9.45;;;21.60;57.80;;;;;;4954990;29;20024;-89
2021/06/04 05:07:40;;;;;;;11.18;9.20;;;21.60;57.90;;;;;;4961188;28;20038;-84
2021/06/04 05:10:07;;;;;;;10.70;9.20;;;21.60;57.90;;;;;;4968937;28;20039;-87
2021/06/04 05:12:34;;;;;;;11.57;9.48;;;21.60;57.90;;;;;;4969553;28;20026;-84
2021/06/04 05:15:00;;;;;;;12.10;9.13;;;21.60;57.90;;;;;;4955940;28;20031;-88
2021/06/04 05:17:26;;;;;;;10.15;8.73;;;21.60;57.90;;;;;;4977474;28;20159;-89
2021/06/04 05:19:52;;;;;;;11.75;9.82;;;21.60;57.90;;;;;;4976001;28;20048;-90
2021/06/04 05:22:18;;;;;;;11.93;8.70;;;21.60;57.90;;;;;;4939361;28;20033;-88
2021/06/04 05:24:44;;;;;;;10.48;8.85;;;21.50;57.90;;;;;;4958446;28;20106;-88
2021/06/04 05:27:11;;;;;;;10.27;9.02;;;21.60;58.00;;;;;;4971131;28;20031;-86
2021/06/04 05:29:38;;;;;;;11.23;9.20;;;21.50;57.90;;;;;;4948127;28;20058;-87
2021/06/04 05:32:04;;;;;;;10.73;9.15;;;21.50;58.00;;;;;;4971741;28;20156;-87
2021/06/04 05:34:30;;;;;;;10.57;8.85;;;21.50;58.60;;;;;;4958511;28;20078;-87
2021/06/04 05:36:57;;;;;;;10.38;8.50;;;21.50;58.00;;;;;;4978277;28;20046;-88
2021/06/04 05:39:25;;;;;;;11.52;9.75;;;21.50;58.00;;;;;;4959440;28;20125;-87
2021/06/04 05:41:57;;;;;;;10.85;9.25;;;21.50;58.10;;;;;;4975705;28;20034;-88
2021/06/04 05:44:25;;;;;;;10.60;9.20;;;21.50;58.10;;;;;;4975392;28;20034;-88
2021/06/04 05:46:54;;;;;;;10.63;8.77;;;21.60;58.20;;;;;;4955528;28;20034;-89
2021/06/04 05:49:21;;;;;;;10.35;9.00;;;21.50;58.20;;;;;;4976347;28;20113;-89
2021/06/04 05:51:47;;;;;;;11.68;9.23;;;21.50;58.10;;;;;;4966333;28;20050;-89
2021/06/04 05:54:15;;;;;;;10.90;9.00;;;21.50;58.10;;;;;;4987533;28;20030;-86
2021/06/04 05:56:40;;;;;;;10.82;9.10;;;21.50;58.10;;;;;;4946732;28;20479;-87
2021/06/04 05:59:06;;;;;;;10.60;8.82;;;21.50;58.10;;;;;;4956318;28;20034;-92
2021/06/04 06:01:35;;;;;;;10.75;9.07;;;21.50;58.20;;;;;;4945933;28;20530;-89
2021/06/04 06:04:00;;;;;;;11.32;8.75;;;21.50;58.20;;;;;;4963290;28;20368;-89
2021/06/04 06:06:26;;;;;;;9.32;8.27;;;21.50;58.10;;;;;;4975081;28;20030;-86
2021/06/04 06:08:52;;;;;;;9.05;7.95;;;21.50;58.10;;;;;;4967847;28;20066;-88
2021/06/04 06:11:25;;;;;;;10.30;8.70;;;21.50;58.10;;;;;;4956014;28;20031;-87
2021/06/04 06:13:52;;;;;;;8.98;7.97;;;21.50;58.10;;;;;;4975468;28;20082;-88
2021/06/04 06:16:19;;;;;;;9.63;7.97;;;21.50;58.10;;;;;;4965901;28;20148;-88
2021/06/04 06:18:45;;;;;;;10.32;8.45;;;21.50;58.10;;;;;;4974844;28;20486;-88
2021/06/04 06:21:12;;;;;;;10.50;8.38;;;21.50;58.10;;;;;;4975082;28;20061;-89
2021/06/04 06:23:38;;;;;;;9.45;7.80;;;21.60;58.10;;;;;;4976412;28;20034;-88
2021/06/04 06:26:11;;;;;;;10.98;7.93;;;21.60;58.10;;;;;;4991113;28;20023;-89
2021/06/04 06:28:39;;;;;;;9.18;7.63;;;21.60;58.10;;;;;;4958984;28;20034;-88
2021/06/04 06:31:09;;;;;;;9.23;7.82;;;21.60;58.10;;;;;;4942633;28;20460;-89
2021/06/04 06:33:35;;;;;;;8.95;7.55;;;21.60;58.10;;;;;;4955753;29;20035;-88
2021/06/04 06:36:06;;;;;;;10.38;8.50;;;21.60;58.10;;;;;;4956139;29;20047;-88
2021/06/04 06:38:32;;;;;;;9.98;8.20;;;21.60;58.20;;;;;;4944190;29;20058;-89
2021/06/04 06:41:01;;;;;;;10.07;8.15;;;21.70;58.20;;;;;;4922638;29;20429;-89
2021/06/04 06:43:29;;;;;;;8.55;7.50;;;21.70;58.30;;;;;;4956063;29;20039;-90
2021/06/04 06:45:56;;;;;;;9.02;7.55;;;21.60;58.30;;;;;;4946441;29;20460;-90
2021/06/04 06:48:22;;;;;;;9.52;7.75;;;21.60;58.30;;;;;;4938201;29;20043;-85
2021/06/04 06:50:49;;;;;;;9.95;8.45;;;21.70;58.40;;;;;;4925391;29;20036;-85
2021/06/04 06:53:17;;;;;;;9.68;8.52;;;21.70;59.20;;;;;;4923477;29;20037;-85
2021/06/04 06:55:44;;;;;;;9.07;7.72;;;21.80;58.60;;;;;;4954701;29;20034;-84
2021/06/04 06:58:11;;;;;;;9.35;7.53;;;21.80;58.60;;;;;;4954659;29;20070;-84
2021/06/04 07:00:41;;;;;;;9.90;7.97;;;21.80;58.50;;;;;;4934947;29;20028;-84
2021/06/04 07:03:08;;;;;;;9.65;8.07;;;21.80;58.60;;;;;;4937567;29;20157;-84
2021/06/04 07:05:35;;;;;;;9.13;7.10;;;21.80;58.50;;;;;;4922604;29;20121;-86
2021/06/04 07:08:01;;;;;;;8.48;7.30;;;21.80;58.40;;;;;;4954614;29;20031;-85
2021/06/04 07:10:29;;;;;;;9.15;7.80;;;21.90;58.50;;;;;;4938625;29;20027;-85
2021/06/04 07:13:02;;;;;;;8.43;7.05;;;21.90;58.50;;;;;;4957987;28;20030;-86
2021/06/04 07:15:29;;;;;;;8.10;6.95;;;21.90;58.50;;;;;;4963513;28;20432;-86
2021/06/04 07:17:58;;;;;;;8.27;7.13;;;22.00;58.50;;;;;;4954278;29;20114;-85
2021/06/04 07:20:27;;;;;;;9.05;7.85;;;22.00;58.50;;;;;;4938403;29;20042;-85
2021/06/04 07:22:54;;;;;;;8.50;7.03;;;22.00;58.50;;;;;;4943927;29;20031;-85
2021/06/04 07:25:22;;;;;;;9.93;7.63;;;22.00;58.40;;;;;;4943474;29;20023;-85
2021/06/04 07:27:48;;;;;;;8.82;6.85;;;22.00;58.40;;;;;;4944905;28;20034;-85
2021/06/04 07:30:23;;;;;;;10.02;7.25;;;22.10;58.40;;;;;;4938903;29;20110;-86
2021/06/04 07:32:49;;;;;;;8.45;7.20;;;22.10;58.40;;;;;;4938802;29;20027;-84
2021/06/04 07:35:19;;;;;;;9.30;7.10;;;22.20;58.30;;;;;;4933982;29;20077;-86
2021/06/04 07:37:45;;;;;;;9.30;7.50;;;22.20;58.30;;;;;;4938380;29;20035;-85
2021/06/04 07:40:15;;;;;;;8.95;7.30;;;22.20;58.20;;;;;;4950288;28;20031;-87
2021/06/04 07:42:42;;;;;;;8.65;7.25;;;22.30;58.20;;;;;;4957187;28;20058;-86
2021/06/04 07:45:09;;;;;;;8.93;6.80;;;22.30;58.10;;;;;;4959815;28;20475;-86
2021/06/04 07:47:36;;;;;;;8.98;7.43;;;22.40;58.00;;;;;;4948917;28;20027;-85
2021/06/04 07:50:04;;;;;;;8.25;7.13;;;22.40;57.90;;;;;;4938174;29;20036;-86
2021/06/04 07:52:30;;;;;;;10.35;7.68;;;22.60;58.00;;;;;;4957045;28;20019;-86
2021/06/04 07:54:58;;;;;;;9.23;7.38;;;22.60;57.90;;;;;;4957485;28;20062;-86
2021/06/04 07:57:25;;;;;;;8.18;6.97;;;22.70;57.80;;;;;;4956288;28;20392;-84
2021/06/04 07:59:51;;;;;;;7.65;6.63;;;22.70;57.70;;;;;;4961965;28;20523;-85
2021/06/04 08:02:17;;;;;;;8.55;6.72;;;22.80;57.70;;;;;;4938324;28;20118;-85
2021/06/04 08:04:43;;;;;;;8.10;6.75;;;22.80;57.60;;;;;;4966234;28;20027;-86
2021/06/04 08:07:09;;;;;;;8.48;7.05;;;22.90;57.60;;;;;;4935274;29;20123;-86
2021/06/04 08:09:35;;;;;;;7.95;6.63;;;22.90;57.50;;;;;;4937981;28;20047;-86
2021/06/04 08:12:04;;;;;;;8.73;7.15;;;23.00;57.40;;;;;;4925683;28;20079;-85
2021/06/04 08:14:31;;;;;;;7.97;6.35;;;23.00;57.40;;;;;;4960003;28;20085;-85
2021/06/04 08:16:58;;;;;;;8.60;6.85;;;23.00;57.40;;;;;;4945356;29;20399;-86
2021/06/04 08:19:25;;;;;;;8.50;6.57;;;23.10;57.40;;;;;;4942499;28;20027;-85
2021/06/04 08:21:53;;;;;;;9.48;7.30;;;23.20;57.40;;;;;;4929270;28;20027;-85
2021/06/04 08:24:25;;;;;;;8.52;7.10;;;23.20;57.40;;;;;;4967415;28;20054;-85
2021/06/04 08:26:56;;;;;;;7.32;6.47;;;23.20;57.40;;;;;;4943283;28;20030;-88
2021/06/04 08:29:36;;;;;;;8.60;7.25;;;23.30;57.40;;;;;;4972517;28;20057;-89
2021/06/04 08:32:09;;;;;;;9.10;7.28;;;23.30;57.40;;;;;;4953632;28;20050;-88
2021/06/04 08:34:44;;;;;;;7.60;6.05;;;23.40;57.40;;;;;;4962686;28;20046;-88
2021/06/04 08:37:20;;;;;;;8.57;6.65;;;23.40;57.40;;;;;;4955539;28;20046;-88
2021/06/04 08:39:58;;;;;;;8.10;6.55;;;23.50;57.30;;;;;;4957723;28;20473;-87
2021/06/04 08:42:29;;;;;;;8.40;7.13;;;23.60;57.30;;;;;;4989281;28;20118;-85
2021/06/04 08:45:04;;;;;;;8.13;7.00;;;23.70;57.40;;;;;;4958592;28;20057;-87
2021/06/04 08:47:32;;;;;;;8.38;7.15;;;23.70;57.30;;;;;;4976402;28;20038;-86
2021/06/04 08:50:03;;;;;;;8.20;6.40;;;23.80;57.20;;;;;;4976366;28;20027;-87
2021/06/04 08:52:59;;;;;;;7.53;6.53;;;23.90;57.10;;;;;;4974603;28;20031;-85
2021/06/04 08:55:44;;;;;;;7.63;6.38;;;24.00;57.10;;;;;;4967833;28;20596;-90
2021/06/04 08:58:34;;;;;;;7.20;6.00;;;24.00;57.00;;;;;;4962399;28;20038;-85
2021/06/04 09:01:11;;;;;;;9.55;7.60;;;24.10;56.90;;;;;;4975377;28;20088;-85
2021/06/04 09:03:47;;;;;;;7.30;6.13;;;24.20;56.70;;;;;;4971813;28;20038;-84
2021/06/04 09:06:37;;;;;;;8.00;6.22;;;24.30;56.70;;;;;;4975599;28;20042;-84
2021/06/04 09:09:13;;;;;;;7.70;6.03;;;24.30;56.60;;;;;;4990603;28;20109;-84
2021/06/04 09:11:39;;;;;;;7.90;6.30;;;24.40;56.60;;;;;;4959537;28;20034;-84
2021/06/04 09:14:07;;;;;;;8.38;6.20;;;24.50;56.40;;;;;;4975479;28;20035;-85
2021/06/04 09:16:54;;;;;;;7.25;5.72;;;24.60;56.50;;;;;;4976525;28;20379;-84
2021/06/04 09:19:26;;;;;;;7.88;6.63;;;24.60;56.40;;;;;;4979500;28;20037;-86
2021/06/04 09:21:53;;;;;;;7.65;6.00;;;24.70;56.30;;;;;;4973571;28;20446;-84
2021/06/04 09:24:35;;;;;;;8.30;6.57;;;24.80;56.20;;;;;;4966886;28;20127;-84
2021/06/04 09:27:01;;;;;;;7.55;6.07;;;24.90;56.30;;;;;;4954298;28;20034;-83
2021/06/04 09:29:29;;;;;;;8.23;6.15;;;25.00;56.10;;;;;;4963761;28;20019;-84
2021/06/04 09:32:20;;;;;;;7.93;6.10;;;25.00;56.10;;;;;;4954188;28;20497;-85
2021/06/04 09:34:46;;;;;;;7.25;6.07;;;25.10;56.20;;;;;;4959161;28;20046;-84
2021/06/04 09:37:21;;;;;;;7.72;5.60;;;25.20;56.00;;;;;;4977431;28;20034;-85
2021/06/04 09:39:51;;;;;;;6.55;5.53;;;25.30;56.20;;;;;;4969758;28;20479;-85
2021/06/04 09:42:31;;;;;;;6.47;5.45;;;25.30;56.00;;;;;;4959120;28;20031;-85
2021/06/04 09:45:11;;;;;;;7.70;5.82;;;25.40;56.00;;;;;;4974710;28;20176;-85
2021/06/04 09:47:42;;;;;;;6.90;5.65;;;25.50;55.90;;;;;;4958730;28;20082;-84
2021/06/04 09:50:16;;;;;;;7.47;5.65;;;25.60;55.70;;;;;;4965774;28;20081;-92
2021/06/04 09:52:42;;;;;;;;;;;25.70;55.70;;;;;;4991986;28;20066;-89
2021/06/04 09:55:21;;;;;;;5.95;4.57;;;25.70;55.50;;;;;;4959085;28;19911;-91
2021/06/04 09:58:07;;;;;;;7.15;5.35;;;25.90;55.50;;;;;;4976239;28;20039;-92
2021/06/04 10:00:50;;;;;;;7.45;4.78;;;25.90;55.60;;;;;;4964546;28;20404;-90
2021/06/04 10:03:27;;;;;;;6.78;5.20;;;26.00;55.60;;;;;;4977915;28;20073;-85
2021/06/04 10:06:22;;;;;;;6.72;4.90;;;26.00;55.60;;;;;;4959137;28;20058;-85
2021/06/04 10:08:53;;;;;;;6.57;5.00;;;26.10;55.60;;;;;;4924515;28;20480;-86
2021/06/04 10:11:29;;;;;;;6.25;5.20;;;26.20;55.50;;;;;;4975360;28;20027;-87
2021/06/04 10:14:06;;;;;;;6.47;4.95;;;26.20;55.40;;;;;;4958174;28;20035;-88
2021/06/04 10:19:21;;;;;;;7.03;5.45;;;26.30;55.40;;;;;;4961473;28;20117;-89
2021/06/04 10:21:49;;;;;;;7.28;5.18;;;26.40;55.40;;;;;;4974831;28;20122;-88
2021/06/04 10:24:32;;;;;;;6.20;4.90;;;26.50;55.40;;;;;;4944378;28;20011;-91
2021/06/04 10:27:01;;;;;;;6.30;5.00;;;26.50;55.40;;;;;;4953264;28;20128;-88
2021/06/04 10:29:28;;;;;;;6.53;4.70;;;26.60;55.30;;;;;;4963040;28;20023;-91
2021/06/04 10:32:01;;;;;;;5.82;4.70;;;26.70;55.30;;;;;;4980367;28;20026;-89
2021/06/04 10:34:46;;;;;;;5.90;4.47;;;26.70;55.30;;;;;;4955771;28;20081;-88
2021/06/04 10:37:18;;;;;;;6.43;5.00;;;26.70;55.10;;;;;;4954630;28;20043;-90
2021/06/04 10:39:58;;;;;;;5.80;4.40;;;26.80;55.00;;;;;;4950327;29;20050;-89
2021/06/04 10:42:41;;;;;;;6.25;4.88;;;26.90;55.10;;;;;;4954177;29;20031;-89
2021/06/04 10:45:23;;;;;;;6.07;4.45;;;27.00;55.00;;;;;;4955029;29;20035;-88
2021/06/04 10:48:10;;;;;;;5.30;4.10;;;27.00;54.90;;;;;;4953446;29;20023;-91
2021/06/04 10:50:54;;;;;;;5.35;4.18;;;27.10;54.90;;;;;;4933611;29;20035;-90
2021/06/04 10:53:43;;;;;;;5.70;4.43;;;27.20;54.80;;;;;;4915280;29;20024;-88
2021/06/04 10:56:23;;;;;;;5.07;3.63;;;27.30;54.80;;;;;;4952275;29;20107;-86
2021/06/04 10:58:54;;;;;;;5.03;3.88;;;27.30;54.60;;;;;;4938682;29;20039;-86
2021/06/04 11:01:28;;;;;;;4.90;3.70;;;27.40;54.60;;;;;;4934263;29;20083;-86
2021/06/04 11:04:02;;;;;;;4.72;3.67;;;27.50;54.70;;;;;;4915319;29;20082;-85
2021/06/04 11:06:57;;;;;;;5.00;4.00;;;27.60;54.80;;;;;;4922478;29;20030;-85
2021/06/04 11:09:25;;;;;;;5.68;4.15;;;27.60;54.80;;;;;;4922910;29;20080;-85
2021/06/04 11:12:22;;;;;;;5.25;4.10;;;27.70;54.70;;;;;;4938591;29;20118;-85
2021/06/04 11:14:59;;;;;;;4.90;3.60;;;27.80;54.70;;;;;;4913062;29;20034;-85
2021/06/04 11:17:47;;;;;;;4.53;3.67;;;27.90;54.60;;;;;;4954329;29;20067;-84
2021/06/04 11:20:18;;;;;;;5.28;3.83;;;27.90;54.60;;;;;;4953578;29;20480;-85
2021/06/04 11:23:04;;;;;;;5.43;3.78;;;28.00;54.50;;;;;;4938296;29;20027;-85
2021/06/04 11:26:07;;;;;;;4.43;3.53;;;28.00;54.50;;;;;;4955161;29;20031;-85
2021/06/04 11:28:57;;;;;;;5.30;3.90;;;28.10;54.70;;;;;;4908233;29;20102;-85
2021/06/04 11:31:40;;;;;;;5.25;3.50;;;28.20;54.60;;;;;;4953846;29;20118;-85
2021/06/04 11:34:27;;;;;;;4.70;3.53;;;28.20;54.60;;;;;;4937746;28;20114;-86
2021/06/04 11:36:53;;;;;;;4.85;4.18;;;28.30;54.70;;;;;;4922412;29;20036;-85
2021/06/04 11:39:35;;;;;;;4.93;3.78;;;28.30;54.70;;;;;;4937613;29;20608;-85
2021/06/04 11:42:06;;;;;;;4.38;3.30;;;28.40;54.90;;;;;;4955082;29;20023;-86
2021/06/04 11:44:42;;;;;;;4.93;3.83;;;28.40;54.80;;;;;;4921926;29;20167;-86
2021/06/04 11:47:16;;;;;;;5.68;4.05;;;28.50;54.80;;;;;;4918876;29;20032;-85
2021/06/04 11:50:02;;;;;;;4.75;3.75;;;28.50;54.80;;;;;;4927520;29;20034;-85
2021/06/04 11:52:44;;;;;;;4.90;3.53;;;28.50;54.80;;;;;;4944374;29;20035;-84
2021/06/04 11:55:17;;;;;;;4.28;3.47;;;28.60;54.90;;;;;;4933502;29;20034;-85
2021/06/04 11:57:58;;;;;;;4.07;3.53;;;28.60;54.90;;;;;;4944303;29;20067;-84
2021/06/04 12:00:30;;;;;;;4.22;3.70;;;28.70;55.00;;;;;;4948889;29;20108;-86
2021/06/04 12:03:08;;;;;;;5.13;3.78;;;28.70;55.00;;;;;;4957457;29;20273;-86
2021/06/04 12:05:55;;;;;;;5.03;3.80;;;28.70;55.10;;;;;;4958755;29;20035;-85
2021/06/04 12:08:24;;;;;;;4.43;3.70;;;28.80;55.10;;;;;;4941002;29;20051;-85
2021/06/04 12:10:49;;;;;;;4.97;4.07;;;28.80;54.90;;;;;;4936527;29;20027;-85
2021/06/04 12:13:34;;;;;;;4.35;3.65;;;28.80;54.90;;;;;;4941114;29;20042;-84
2021/06/04 12:19:13;;;;;;;5.00;3.55;;;28.90;55.00;;;;;;4926123;29;20073;-85
2021/06/04 12:21:42;;;;;;;5.40;4.10;;;28.90;54.90;;;;;;4942308;29;20111;-85
2021/06/04 12:24:20;;;;;;;4.80;3.90;;;29.00;54.90;;;;;;4957864;29;20023;-85
2021/06/04 12:27:04;;;;;;;5.22;3.80;;;29.00;54.90;;;;;;4937243;29;20372;-84
2021/06/04 12:29:31;;;;;;;4.72;3.75;;;29.00;54.90;;;;;;4955995;28;20027;-85
2021/06/04 12:31:59;;;;;;;4.75;3.72;;;29.00;54.90;;;;;;4927807;29;20039;-86
2021/06/04 12:34:38;;;;;;;5.03;4.03;;;29.10;55.00;;;;;;4945010;28;20125;-85
2021/06/04 12:37:23;;;;;;;4.47;3.72;;;29.10;55.00;;;;;;4976095;28;20049;-86
2021/06/04 12:40:07;;;;;;;5.25;3.70;;;29.10;55.10;;;;;;4967098;28;20035;-86
2021/06/04 12:42:38;;;;;;;4.25;3.60;;;29.20;55.00;;;;;;4956758;28;20412;-85
2021/06/04 12:45:19;;;;;;;5.22;4.00;;;29.20;54.90;;;;;;4956229;28;20031;-84
2021/06/04 12:47:50;;;;;;;5.97;3.80;;;29.20;54.90;;;;;;4971954;28;20023;-86
2021/06/04 12:50:33;;;;;;;4.53;3.67;;;29.20;54.80;;;;;;4968764;28;20082;-86
2021/06/04 12:53:15;;;;;;;5.07;3.78;;;29.20;54.80;;;;;;4975842;28;20098;-85
2021/06/04 12:55:43;;;;;;;4.78;3.88;;;29.20;54.80;;;;;;4942520;29;20034;-85
2021/06/04 12:58:16;;;;;;;4.60;3.63;;;29.30;54.80;;;;;;4972643;28;20034;-86
2021/06/04 13:00:43;;;;;;;4.60;3.72;;;29.30;54.80;;;;;;4959201;28;20074;-86
2021/06/04 13:03:09;;;;;;;4.60;3.90;;;29.30;54.80;;;;;;4975650;28;20023;-85
2021/06/04 13:05:36;;;;;;;4.97;3.80;;;29.30;54.80;;;;;;4975791;28;20503;-86
2021/06/04 13:08:11;;;;;;;5.45;4.22;;;29.40;54.90;;;;;;4959676;28;20030;-86
2021/06/04 13:10:48;;;;;;;4.68;3.88;;;29.40;54.80;;;;;;4949706;29;20078;-85
2021/06/04 13:13:21;;;;;;;4.30;3.60;;;29.40;54.70;;;;;;4957675;28;20023;-85
2021/06/04 13:15:47;;;;;;;4.78;4.05;;;29.40;54.60;;;;;;4961588;28;20468;-84
2021/06/04 13:18:18;;;;;;;5.15;3.90;;;29.40;54.50;;;;;;4943945;28;20031;-86
2021/06/04 13:20:47;;;;;;;4.70;3.83;;;29.50;54.50;;;;;;4975783;28;20033;-85